Time;durP1;ratioP1;P1;durP2;ratioP2;P2;SDS_P1;SDS_P2;PMS_P1;PMS_P2;Temp;Humidity;BMP_temperature;BMP_pressure;BME280_temperature;BME280_humidity;BME280_pressure;Samples;Min_cycle;Max_cycle;Signal;HPM_P1;HPM_P2
2023/07/06 00:01:00;;;;;;;11.77;6.13;;;;;;;14.08;100.00;101458.53;5050674;28;20044;-77
2023/07/06 00:03:25;;;;;;;12.35;6.43;;;;;;;14.11;100.00;101461.63;5050247;28;20473;-76
2023/07/06 00:05:51;;;;;;;11.60;5.32;;;;;;;14.10;100.00;101459.16;5031953;28;20059;-77
2023/07/06 00:08:17;;;;;;;14.27;5.70;;;;;;;14.07;100.00;101454.16;5050408;28;20035;-76
2023/07/06 00:10:44;;;;;;;13.63;5.65;;;;;;;14.07;100.00;101467.59;5050306;28;20033;-77
2023/07/06 00:13:11;;;;;;;10.60;5.93;;;;;;;14.01;100.00;101456.63;5031375;28;20088;-77
2023/07/06 00:15:36;;;;;;;11.73;5.78;;;;;;;14.06;100.00;101464.09;5031236;28;20021;-77
2023/07/06 00:18:03;;;;;;;9.00;5.38;;;;;;;14.06;100.00;101471.31;5022806;28;20036;-77
2023/07/06 00:20:35;;;;;;;11.50;6.00;;;;;;;14.05;100.00;101464.31;5032254;28;20059;-77
2023/07/06 00:23:00;;;;;;;13.55;4.95;;;;;;;14.03;100.00;101468.00;5050168;28;20029;-77
2023/07/06 00:25:26;;;;;;;7.93;4.28;;;;;;;14.03;100.00;101467.19;5050053;28;20123;-77
2023/07/06 00:27:55;;;;;;;15.43;4.80;;;;;;;14.01;100.00;101472.72;5036488;28;20025;-77
2023/07/06 00:30:40;;;;;;;7.53;3.80;;;;;;;13.99;100.00;101465.91;5041075;28;20484;-77
2023/07/06 00:33:06;;;;;;;11.13;4.75;;;;;;;13.96;100.00;101467.19;5030896;28;20048;-77
2023/07/06 00:35:33;;;;;;;9.50;4.55;;;;;;;13.92;100.00;101465.09;5030770;28;20116;-77
2023/07/06 00:37:59;;;;;;;12.80;4.38;;;;;;;13.89;100.00;101465.53;5013293;28;20548;-77
2023/07/06 00:40:29;;;;;;;8.73;4.20;;;;;;;13.88;100.00;101474.56;4996686;28;20733;-77
2023/07/06 00:42:54;;;;;;;9.68;4.25;;;;;;;13.85;100.00;101472.31;5030707;28;20121;-78
2023/07/06 00:45:19;;;;;;;8.90;3.97;;;;;;;13.82;100.00;101466.31;5042546;28;20143;-77
2023/07/06 00:47:51;;;;;;;12.18;4.18;;;;;;;13.77;100.00;101478.69;5038055;28;20088;-78
2023/07/06 00:50:20;;;;;;;;;;;;;;;13.78;100.00;101475.81;5030863;28;20113;-77
2023/07/06 00:52:51;;;;;;;9.88;4.25;;;;;;;13.69;100.00;101476.19;5030339;28;20368;-77
2023/07/06 00:55:20;;;;;;;10.15;4.68;;;;;;;13.63;100.00;101467.09;5041103;28;20036;-77
2023/07/06 00:57:51;;;;;;;5.63;3.50;;;;;;;13.63;100.00;101466.28;5031601;28;20029;-77
2023/07/06 01:00:21;;;;;;;7.30;3.60;;;;;;;13.61;100.00;101465.66;5041709;28;20072;-78
2023/07/06 01:02:53;;;;;;;11.10;3.65;;;;;;;13.57;100.00;101465.19;5030372;28;20033;-77
2023/07/06 01:05:20;;;;;;;8.43;3.97;;;;;;;13.54;100.00;101460.25;5043073;28;20028;-77
2023/07/06 01:07:48;;;;;;;9.60;4.03;;;;;;;13.53;100.00;101464.78;5049553;28;20126;-77
2023/07/06 01:10:14;;;;;;;12.23;5.20;;;;;;;13.55;100.00;101467.28;5034266;28;20025;-78
2023/07/06 01:12:40;;;;;;;11.60;4.07;;;;;;;13.51;100.00;101460.66;5030112;28;20503;-78
2023/07/06 01:15:09;;;;;;;9.02;4.50;;;;;;;13.52;100.00;101465.00;5030138;28;20026;-77
2023/07/06 01:17:47;;;;;;;7.07;3.90;;;;;;;13.50;100.00;101459.03;5017029;28;20045;-78
2023/07/06 01:20:25;;;;;;;5.22;3.45;;;;;;;13.51;100.00;101463.34;5040330;28;20483;-78
2023/07/06 01:23:17;;;;;;;8.02;3.13;;;;;;;13.51;100.00;101461.47;5049123;28;20035;-78
2023/07/06 01:25:50;;;;;;;7.70;3.60;;;;;;;13.47;100.00;101470.16;5049057;28;20037;-78
2023/07/06 01:28:35;;;;;;;7.68;4.10;;;;;;;13.45;100.00;101472.19;5048934;28;20029;-78
2023/07/06 01:31:37;;;;;;;9.82;3.28;;;;;;;13.45;100.00;101474.88;5030931;28;20025;-77
2023/07/06 01:34:17;;;;;;;6.53;3.30;;;;;;;13.37;100.00;101468.66;5029654;28;20469;-77
2023/07/06 01:37:09;;;;;;;10.18;4.00;;;;;;;13.40;100.00;101470.09;5048923;28;20136;-78
2023/07/06 01:39:35;;;;;;;11.00;4.00;;;;;;;13.30;100.00;101464.28;5048737;28;20017;-78
2023/07/06 01:42:09;;;;;;;9.07;3.97;;;;;;;13.35;100.00;101468.00;5048734;28;20361;-77
2023/07/06 01:44:37;;;;;;;7.25;2.70;;;;;;;13.30;100.00;101469.66;5046872;28;20476;-78
2023/07/06 01:47:03;;;;;;;9.00;2.60;;;;;;;13.26;100.00;101466.56;5030731;28;20551;-78
2023/07/06 01:49:30;;;;;;;7.75;3.78;;;;;;;13.22;100.00;101478.63;5030753;28;20048;-78
2023/07/06 01:52:07;;;;;;;4.60;3.20;;;;;;;13.21;100.00;101471.66;5048639;28;20025;-78
2023/07/06 01:54:39;;;;;;;9.60;3.20;;;;;;;13.18;100.00;101474.72;5048526;28;20033;-78
2023/07/06 01:57:14;;;;;;;7.75;2.97;;;;;;;13.12;100.00;101460.25;5048418;28;20025;-78
2023/07/06 01:59:49;;;;;;;10.38;4.10;;;;;;;13.07;100.00;101462.72;5029240;28;20033;-77
2023/07/06 02:02:16;;;;;;;7.60;4.15;;;;;;;13.09;100.00;101471.38;5029483;28;20451;-77
2023/07/06 02:04:43;;;;;;;9.50;3.90;;;;;;;13.08;100.00;101479.59;5042790;28;20029;-78
2023/07/06 02:07:12;;;;;;;6.75;2.90;;;;;;;13.06;100.00;101474.44;5039982;28;20100;-78
2023/07/06 02:09:45;;;;;;;8.32;3.45;;;;;;;13.06;100.00;101476.28;5018511;28;20060;-78
2023/07/06 02:12:14;;;;;;;5.57;3.58;;;;;;;13.04;100.00;101468.44;5045251;28;20445;-78
2023/07/06 02:14:43;;;;;;;8.40;3.42;;;;;;;13.01;100.00;101473.38;5048459;28;20472;-78
2023/07/06 02:17:09;;;;;;;8.57;3.17;;;;;;;12.99;100.00;101473.56;5048388;28;20027;-77
2023/07/06 02:19:35;;;;;;;10.82;3.65;;;;;;;12.96;100.00;101473.16;5048398;28;20103;-78
2023/07/06 02:22:05;;;;;;;6.97;3.78;;;;;;;12.92;100.00;101470.88;5039421;28;20545;-78
2023/07/06 02:24:31;;;;;;;4.65;2.70;;;;;;;12.90;100.00;101472.91;5029147;28;20045;-78
2023/07/06 02:26:57;;;;;;;8.77;3.17;;;;;;;12.87;100.00;101469.81;5029126;28;20049;-78
2023/07/06 02:29:22;;;;;;;10.27;4.60;;;;;;;12.84;100.00;101478.25;5015056;28;20068;-78
2023/07/06 02:31:49;;;;;;;9.82;4.05;;;;;;;12.79;100.00;101470.78;5015329;28;20573;-78
2023/07/06 02:34:21;;;;;;;6.70;3.83;;;;;;;12.78;100.00;101466.44;5033093;28;20520;-77
2023/07/06 02:36:47;;;;;;;8.95;3.45;;;;;;;12.81;100.00;101470.56;5040374;28;20078;-78
2023/07/06 02:39:12;;;;;;;6.78;3.70;;;;;;;12.77;100.00;101462.13;5035599;28;20042;-77
2023/07/06 02:41:37;;;;;;;9.40;3.65;;;;;;;12.72;100.00;101459.19;5025834;28;20029;-78
2023/07/06 02:44:03;;;;;;;8.23;3.30;;;;;;;12.73;100.00;101466.19;5051900;28;20033;-78
2023/07/06 02:46:29;;;;;;;6.18;3.03;;;;;;;12.72;100.00;101470.72;5051922;28;20036;-78
2023/07/06 02:48:55;;;;;;;5.72;2.90;;;;;;;12.69;100.00;101471.13;5023070;28;20057;-78
2023/07/06 02:51:22;;;;;;;7.63;3.20;;;;;;;12.69;100.00;101467.63;5032756;28;20494;-78
2023/07/06 02:53:47;;;;;;;6.63;2.85;;;;;;;12.70;100.00;101475.44;5044752;28;20101;-78
2023/07/06 02:56:13;;;;;;;7.50;3.53;;;;;;;12.65;100.00;101467.19;5051776;28;20116;-78
2023/07/06 02:58:38;;;;;;;5.65;2.80;;;;;;;12.65;100.00;101472.56;5051704;28;20576;-78
2023/07/06 03:01:04;;;;;;;6.90;3.30;;;;;;;12.61;100.00;101462.44;5024854;28;20029;-78
2023/07/06 03:03:29;;;;;;;10.38;3.05;;;;;;;12.60;100.00;101469.63;5012861;28;20037;-78
2023/07/06 03:05:55;;;;;;;11.73;3.03;;;;;;;12.56;100.00;101465.69;5038298;28;20041;-78
2023/07/06 03:08:20;;;;;;;11.05;3.95;;;;;;;12.56;100.00;101463.00;5032530;28;20476;-78
2023/07/06 03:10:46;;;;;;;6.68;3.28;;;;;;;12.53;100.00;101463.41;5014853;28;20099;-78
2023/07/06 03:13:13;;;;;;;6.70;2.80;;;;;;;12.55;100.00;101471.22;5032558;28;20091;-78
2023/07/06 03:15:40;;;;;;;9.57;2.78;;;;;;;12.54;100.00;101473.06;5043395;28;20037;-78
2023/07/06 03:18:06;;;;;;;7.32;3.22;;;;;;;12.55;100.00;101468.53;5014535;28;20505;-78
2023/07/06 03:20:35;;;;;;;7.60;3.05;;;;;;;12.55;100.00;101477.41;5040487;28;20549;-79
2023/07/06 03:23:02;;;;;;;7.03;3.40;;;;;;;12.57;100.00;101474.53;5037115;28;20032;-79
2023/07/06 03:25:27;;;;;;;6.43;2.70;;;;;;;12.55;100.00;101477.41;5051308;28;20672;-78
2023/07/06 03:27:53;;;;;;;9.95;3.22;;;;;;;12.57;100.00;101478.03;5051249;28;20054;-78
2023/07/06 03:30:21;;;;;;;4.53;2.88;;;;;;;12.57;100.00;101483.38;5051269;28;20124;-79
2023/07/06 03:32:47;;;;;;;10.50;3.15;;;;;;;12.51;100.00;101470.78;5051107;28;20068;-78
2023/07/06 03:35:13;;;;;;;9.07;3.33;;;;;;;12.60;100.00;101485.69;5038403;28;20053;-78
2023/07/06 03:37:42;;;;;;;7.93;3.20;;;;;;;12.64;100.00;101491.47;5032005;28;20150;-78
2023/07/06 03:40:12;;;;;;;15.60;4.05;;;;;;;12.64;100.00;101492.28;5031012;28;20033;-79
2023/07/06 03:42:45;;;;;;;8.02;3.97;;;;;;;12.68;100.00;101492.72;5044440;28;20056;-78
2023/07/06 03:45:12;;;;;;;6.63;3.08;;;;;;;12.69;100.00;101492.53;5050555;28;20032;-78
2023/07/06 03:47:39;;;;;;;10.70;3.97;;;;;;;12.73;100.00;101495.63;5034363;28;20061;-78
2023/07/06 03:50:08;;;;;;;6.45;3.72;;;;;;;12.72;100.00;101497.50;5049238;28;20033;-78
2023/07/06 03:52:36;;;;;;;9.30;4.22;;;;;;;12.74;100.00;101500.00;5050716;28;20039;-79
2023/07/06 03:55:01;;;;;;;6.60;3.25;;;;;;;12.72;100.00;101496.66;5050972;28;20029;-79
2023/07/06 03:57:27;;;;;;;6.72;3.88;;;;;;;12.74;100.00;101500.00;5048580;28;20361;-78
2023/07/06 03:59:52;;;;;;;12.38;3.47;;;;;;;12.80;100.00;101503.72;5031491;28;20126;-79
2023/07/06 04:02:20;;;;;;;9.65;4.63;;;;;;;12.82;100.00;101504.38;5031139;28;20508;-78
2023/07/06 04:04:45;;;;;;;11.68;3.78;;;;;;;12.84;100.00;101508.50;5041849;28;20544;-79
2023/07/06 04:07:11;;;;;;;8.82;3.90;;;;;;;12.77;100.00;101502.28;5045744;28;20151;-78
2023/07/06 04:09:38;;;;;;;7.20;3.58;;;;;;;12.84;100.00;101518.41;5013595;28;20083;-78
2023/07/06 04:12:07;;;;;;;9.05;2.58;;;;;;;12.87;100.00;101512.66;5031311;28;20061;-78
2023/07/06 04:14:34;;;;;;;6.25;3.53;;;;;;;12.86;100.00;101510.97;5031100;28;20099;-78
2023/07/06 04:16:59;;;;;;;8.93;3.42;;;;;;;12.87;100.00;101520.69;5030961;28;20128;-78
2023/07/06 04:19:25;;;;;;;8.15;3.25;;;;;;;12.82;100.00;101513.22;5012799;28;20433;-79
2023/07/06 04:21:52;;;;;;;10.65;2.90;;;;;;;12.89;100.00;101519.47;5033657;28;20037;-79
2023/07/06 04:24:17;;;;;;;9.43;3.40;;;;;;;12.88;100.00;101525.00;5049887;28;20476;-78
2023/07/06 04:26:45;;;;;;;9.05;3.88;;;;;;;12.91;100.00;101527.28;5049949;28;20043;-78
2023/07/06 04:29:11;;;;;;;11.43;3.97;;;;;;;12.88;100.00;101525.00;5031937;28;21035;-78
2023/07/06 04:31:37;;;;;;;8.27;3.03;;;;;;;12.87;100.00;101521.50;5049900;28;20412;-78
2023/07/06 04:34:03;;;;;;;11.35;4.18;;;;;;;12.88;100.00;101516.97;5049956;28;20456;-78
2023/07/06 04:36:31;;;;;;;8.82;3.40;;;;;;;12.86;100.00;101519.00;5035533;28;20071;-78
2023/07/06 04:39:00;;;;;;;10.07;3.97;;;;;;;12.91;100.00;101525.41;5030822;28;20144;-78
2023/07/06 04:41:27;;;;;;;8.27;3.20;;;;;;;12.88;100.00;101519.63;5044098;28;20036;-79
2023/07/06 04:43:52;;;;;;;12.93;5.35;;;;;;;12.92;100.00;101529.78;5049559;28;20365;-79
2023/07/06 04:46:21;;;;;;;10.15;4.60;;;;;;;12.93;100.00;101531.41;5049741;28;20033;-78
2023/07/06 04:48:47;;;;;;;10.60;3.40;;;;;;;12.93;100.00;101541.31;5049505;28;20059;-78
2023/07/06 04:51:13;;;;;;;12.00;3.70;;;;;;;12.98;100.00;101540.72;5029212;28;20056;-78
2023/07/06 04:53:39;;;;;;;12.20;4.85;;;;;;;13.00;100.00;101539.50;5031674;28;20062;-79
2023/07/06 04:56:06;;;;;;;16.30;4.22;;;;;;;12.95;100.00;101531.22;5049519;28;20070;-78
2023/07/06 04:58:32;;;;;;;16.13;4.95;;;;;;;13.00;100.00;101544.03;5049438;28;20057;-78
2023/07/06 05:01:02;;;;;;;13.05;3.97;;;;;;;13.02;100.00;101552.69;5047675;28;20056;-79
2023/07/06 05:03:30;;;;;;;14.88;5.75;;;;;;;13.03;100.00;101538.28;5040422;28;20475;-78
2023/07/06 05:06:01;;;;;;;12.88;5.30;;;;;;;13.03;100.00;101546.31;5040820;28;20048;-79
2023/07/06 05:08:27;;;;;;;9.93;4.05;;;;;;;13.03;100.00;101541.78;5037220;28;20025;-79
2023/07/06 05:10:53;;;;;;;12.80;6.22;;;;;;;12.99;100.00;101537.00;5041296;28;20024;-79
2023/07/06 05:13:20;;;;;;;9.88;4.47;;;;;;;13.00;100.00;101547.53;5036289;28;20115;-79
2023/07/06 05:15:46;;;;;;;10.27;4.93;;;;;;;13.04;100.00;101545.28;5034765;28;20025;-79
2023/07/06 05:18:11;;;;;;;11.50;3.78;;;;;;;13.13;100.00;101546.81;5046967;28;20060;-79
2023/07/06 05:20:37;;;;;;;17.52;5.43;;;;;;;13.19;100.00;101550.53;5037811;28;20033;-78
2023/07/06 05:23:05;;;;;;;16.77;4.95;;;;;;;13.17;100.00;101542.69;5049253;28;20111;-79
2023/07/06 05:25:31;;;;;;;9.98;5.00;;;;;;;13.29;100.00;101548.38;5043099;28;20053;-79
2023/07/06 05:27:57;;;;;;;11.07;4.97;;;;;;;13.32;100.00;101551.47;5019317;28;20087;-79
2023/07/06 05:30:23;;;;;;;16.08;5.43;;;;;;;13.41;100.00;101559.34;5037421;28;20037;-78
2023/07/06 05:32:49;;;;;;;12.45;5.50;;;;;;;13.41;100.00;101552.13;5039183;28;20370;-77
2023/07/06 05:35:15;;;;;;;13.88;6.38;;;;;;;13.51;100.00;101555.28;5044194;28;20033;-78
2023/07/06 05:37:41;;;;;;;14.20;5.65;;;;;;;13.59;100.00;101549.75;5041709;28;20030;-79
2023/07/06 05:40:09;;;;;;;16.13;5.90;;;;;;;13.63;100.00;101555.56;5041860;28;20029;-78
2023/07/06 05:42:34;;;;;;;14.70;6.35;;;;;;;13.71;100.00;101557.25;5033033;28;20117;-78
2023/07/06 05:44:59;;;;;;;15.90;5.22;;;;;;;13.75;100.00;101553.97;5029776;28;20029;-78
2023/07/06 05:47:26;;;;;;;16.38;6.80;;;;;;;13.82;100.00;101557.47;5023129;28;20416;-79
2023/07/06 05:49:52;;;;;;;18.42;6.78;;;;;;;13.91;100.00;101562.66;5036655;28;20028;-77
2023/07/06 05:52:18;;;;;;;14.40;5.93;;;;;;;14.00;100.00;101562.28;5042524;28;20527;-77
2023/07/06 05:54:43;;;;;;;18.38;7.97;;;;;;;14.07;100.00;101569.50;5028058;28;20040;-78
2023/07/06 05:57:09;;;;;;;20.15;8.05;;;;;;;14.05;100.00;101567.06;5020366;28;20037;-78
2023/07/06 05:59:36;;;;;;;27.58;9.55;;;;;;;14.07;100.00;101566.81;5037543;28;20108;-78
2023/07/06 06:02:04;;;;;;;27.85;10.02;;;;;;;14.13;100.00;101576.78;5029434;28;20025;-78
2023/07/06 06:04:30;;;;;;;20.15;8.10;;;;;;;14.16;100.00;101571.00;5034890;28;20051;-78
2023/07/06 06:06:56;;;;;;;23.27;10.05;;;;;;;14.09;100.00;101573.66;5019292;28;20034;-78
2023/07/06 06:09:23;;;;;;;29.27;12.23;;;;;;;14.12;100.00;101575.94;5044780;28;20541;-77
2023/07/06 06:11:49;;;;;;;22.77;9.88;;;;;;;14.20;100.00;101577.59;5046540;28;20120;-78
2023/07/06 06:14:15;;;;;;;22.67;9.95;;;;;;;14.19;100.00;101574.09;5043990;28;20524;-78
2023/07/06 06:16:40;;;;;;;27.73;10.18;;;;;;;14.29;100.00;101579.06;5035374;28;20036;-74
2023/07/06 06:19:06;;;;;;;27.23;11.60;;;;;;;14.20;100.00;101578.44;5043243;28;20441;-74
2023/07/06 06:21:33;;;;;;;24.05;9.55;;;;;;;14.25;100.00;101585.88;5039493;28;20107;-77
2023/07/06 06:23:59;;;;;;;23.42;11.00;;;;;;;14.29;100.00;101588.97;5043452;28;20033;-78
2023/07/06 06:26:25;;;;;;;26.60;10.30;;;;;;;14.31;100.00;101587.75;5032901;28;20106;-78
2023/07/06 06:28:51;;;;;;;22.20;10.00;;;;;;;14.33;100.00;101592.91;5030281;28;20038;-78
2023/07/06 06:31:16;;;;;;;22.42;9.63;;;;;;;14.37;100.00;101594.16;5030977;28;20036;-75
2023/07/06 06:33:44;;;;;;;25.05;9.55;;;;;;;14.36;100.00;101598.72;5038787;28;20033;-78
2023/07/06 06:36:11;;;;;;;23.02;12.25;;;;;;;14.39;100.00;101606.34;5037871;28;20034;-77
2023/07/06 06:38:37;;;;;;;26.10;12.23;;;;;;;14.51;100.00;101603.88;5047102;28;20041;-77
2023/07/06 06:41:03;;;;;;;23.63;10.98;;;;;;;14.54;100.00;101598.16;5032203;28;20033;-78
2023/07/06 06:43:28;;;;;;;23.60;10.70;;;;;;;14.66;100.00;101606.41;5039320;28;20029;-77
2023/07/06 06:45:54;;;;;;;21.17;10.27;;;;;;;14.67;100.00;101606.22;5030333;28;20575;-77
2023/07/06 06:48:20;;;;;;;23.05;9.30;;;;;;;14.84;100.00;101617.38;5046602;28;20052;-77
2023/07/06 06:50:45;;;;;;;20.73;10.50;;;;;;;14.87;100.00;101608.91;5047551;28;20029;-78
2023/07/06 06:53:11;;;;;;;22.73;9.68;;;;;;;14.88;100.00;101612.41;5047745;28;20476;-77
2023/07/06 06:55:37;;;;;;;22.00;10.00;;;;;;;14.96;100.00;101612.22;5048238;28;20029;-78
2023/07/06 06:58:03;;;;;;;24.63;10.63;;;;;;;15.10;100.00;101618.41;5048206;28;20029;-78
2023/07/06 07:00:29;;;;;;;21.88;9.20;;;;;;;15.18;100.00;101612.00;5028904;28;20125;-78
2023/07/06 07:02:54;;;;;;;21.70;9.68;;;;;;;15.27;100.00;101622.34;5033026;28;20468;-78
2023/07/06 07:05:20;;;;;;;22.90;9.52;;;;;;;15.31;100.00;101620.88;5047769;28;20045;-77
2023/07/06 07:07:45;;;;;;;21.08;10.45;;;;;;;15.34;100.00;101617.75;5041330;28;20035;-76
2023/07/06 07:10:11;;;;;;;18.75;9.57;;;;;;;15.55;100.00;101621.22;5016826;28;20033;-77
2023/07/06 07:12:42;;;;;;;28.75;8.60;;;;;;;15.68;100.00;101625.75;5015715;28;20021;-74
2023/07/06 07:15:14;;;;;;;19.88;10.00;;;;;;;15.74;100.00;101631.13;5042628;28;20044;-76
2023/07/06 07:17:39;;;;;;;23.70;10.52;;;;;;;15.90;100.00;101627.16;5046933;28;20036;-76
2023/07/06 07:20:06;;;;;;;25.90;10.52;;;;;;;16.09;100.00;101635.38;5028599;28;20025;-77
2023/07/06 07:22:32;;;;;;;19.02;9.93;;;;;;;16.18;100.00;101636.75;5044298;28;20040;-75
2023/07/06 07:24:58;;;;;;;24.75;10.73;;;;;;;16.10;100.00;101643.22;5026176;28;20115;-77
2023/07/06 07:27:25;;;;;;;18.48;9.98;;;;;;;16.18;100.00;101639.44;5040862;28;20112;-77
2023/07/06 07:29:53;;;;;;;19.40;10.65;;;;;;;16.24;100.00;101635.06;5038752;28;20033;-75
2023/07/06 07:32:20;;;;;;;29.60;12.38;;;;;;;16.37;100.00;101640.38;5046851;28;20029;-77
2023/07/06 07:34:50;;;;;;;19.85;10.30;;;;;;;16.44;100.00;101644.69;5047534;28;20044;-76
2023/07/06 07:37:19;;;;;;;18.15;11.02;;;;;;;16.70;100.00;101645.56;5043708;28;20056;-78
2023/07/06 07:39:48;;;;;;;19.02;10.43;;;;;;;16.80;100.00;101651.34;5035795;28;20029;-76
2023/07/06 07:42:14;;;;;;;18.45;10.63;;;;;;;16.63;100.00;101650.97;5043258;28;20025;-77
2023/07/06 07:44:47;;;;;;;23.13;10.98;;;;;;;16.64;100.00;101649.16;5014845;28;20031;-78
2023/07/06 07:47:18;;;;;;;21.95;11.07;;;;;;;16.81;100.00;101652.16;5035735;28;20039;-77
2023/07/06 07:49:47;;;;;;;15.63;8.55;;;;;;;16.90;100.00;101650.84;5048679;28;20073;-76
2023/07/06 07:52:14;;;;;;;16.38;8.75;;;;;;;17.00;100.00;101653.03;5046815;28;20025;-76
2023/07/06 07:54:39;;;;;;;19.73;9.93;;;;;;;17.08;100.00;101655.47;5039867;28;20048;-76
2023/07/06 07:57:06;;;;;;;19.90;9.68;;;;;;;17.12;100.00;101658.56;5041566;28;20026;-76
2023/07/06 07:59:33;;;;;;;20.08;10.00;;;;;;;17.13;100.00;101665.59;5038620;28;20025;-76
2023/07/06 08:01:59;;;;;;;17.63;8.95;;;;;;;17.13;100.00;101668.28;5038906;28;20694;-76
2023/07/06 08:04:24;;;;;;;22.67;9.77;;;;;;;17.02;100.00;101659.03;5024716;28;20040;-76
2023/07/06 08:06:50;;;;;;;20.38;10.48;;;;;;;16.92;100.00;101666.78;5007532;28;20029;-77
2023/07/06 08:09:16;;;;;;;24.55;11.02;;;;;;;16.80;100.00;101669.38;5042486;28;20108;-77
2023/07/06 08:11:46;;;;;;;20.40;11.88;;;;;;;16.69;100.00;101665.47;5020916;28;20033;-77
2023/07/06 08:14:12;;;;;;;24.33;10.23;;;;;;;16.76;100.00;101666.25;5039820;28;20640;-76
2023/07/06 08:16:40;;;;;;;19.50;10.15;;;;;;;16.89;100.00;101665.34;5043097;28;20044;-76
2023/07/06 08:19:09;;;;;;;19.83;10.35;;;;;;;17.09;100.00;101666.03;5024572;28;20020;-77
2023/07/06 08:21:35;;;;;;;16.42;9.77;;;;;;;17.84;97.67;101675.09;5041671;28;20036;-76
2023/07/06 08:24:01;;;;;;;18.02;11.00;;;;;;;19.05;95.70;101681.38;5038237;28;20032;-76
2023/07/06 08:26:31;;;;;;;16.70;9.07;;;;;;;20.69;86.59;101687.63;5041574;28;20043;-76
2023/07/06 08:28:57;;;;;;;21.70;9.35;;;;;;;22.02;75.17;101687.75;5042603;28;20132;-77
2023/07/06 08:31:24;;;;;;;19.20;9.40;;;;;;;23.45;69.06;101696.53;5026432;28;20037;-77
2023/07/06 08:33:50;;;;;;;21.52;9.68;;;;;;;24.73;65.90;101682.59;5044157;28;20030;-76
2023/07/06 08:36:21;;;;;;;19.92;10.40;;;;;;;25.42;61.10;101689.44;5039178;28;20099;-77
2023/07/06 08:38:46;;;;;;;18.63;8.02;;;;;;;25.61;58.13;101686.91;5041437;28;20112;-77
2023/07/06 08:41:22;;;;;;;14.77;8.02;;;;;;;25.71;58.55;101684.97;5041121;28;20096;-77
2023/07/06 08:43:49;;;;;;;13.43;8.20;;;;;;;25.10;58.82;101694.06;5040627;28;20021;-77
2023/07/06 08:46:15;;;;;;;17.20;9.65;;;;;;;24.91;61.06;101682.84;5041281;28;20056;-76
2023/07/06 08:48:41;;;;;;;16.67;8.52;;;;;;;24.78;59.88;101693.50;5040504;28;20049;-77
2023/07/06 08:51:22;;;;;;;14.43;6.90;;;;;;;24.60;64.13;101697.56;5042266;28;20506;-77
2023/07/06 08:54:07;;;;;;;16.50;8.27;;;;;;;25.66;59.05;101695.09;5022888;28;20017;-77
2023/07/06 08:56:39;;;;;;;14.55;7.70;;;;;;;26.22;54.34;101698.44;5041904;28;20056;-77
2023/07/06 08:59:12;;;;;;;;;;;;;;;27.36;59.91;101696.56;5040504;28;20076;-77
2023/07/06 09:01:39;;;;;;;12.02;7.20;;;;;;;26.94;52.44;101702.66;5040701;28;19991;-77
2023/07/06 09:04:14;;;;;;;13.43;6.70;;;;;;;27.76;54.13;101699.94;5043413;28;20166;-77
2023/07/06 09:06:50;;;;;;;15.68;7.32;;;;;;;28.28;49.64;101700.97;5041265;28;20568;-77
2023/07/06 09:09:16;;;;;;;11.70;6.50;;;;;;;27.88;48.84;101705.88;5042454;28;20040;-77
2023/07/06 09:11:43;;;;;;;14.82;6.80;;;;;;;26.23;53.43;101700.09;5036326;28;20030;-77
2023/07/06 09:14:13;;;;;;;15.05;7.85;;;;;;;24.85;58.48;101708.53;5038957;28;20033;-77
2023/07/06 09:16:55;;;;;;;16.98;7.80;;;;;;;23.80;61.55;101709.53;5022117;28;20075;-77
2023/07/06 09:19:23;;;;;;;14.93;7.45;;;;;;;22.70;64.12;101709.19;5042106;28;20138;-77
2023/07/06 09:21:54;;;;;;;14.15;6.07;;;;;;;21.98;66.28;101699.38;5041053;28;20029;-77
2023/07/06 09:24:27;;;;;;;22.33;9.48;;;;;;;21.24;69.79;101704.00;5038945;28;20199;-77
2023/07/06 09:26:57;;;;;;;13.50;6.53;;;;;;;20.95;72.95;101697.00;5042661;28;20056;-77
2023/07/06 09:29:30;;;;;;;16.80;8.88;;;;;;;20.66;72.58;101709.78;5041224;28;20023;-77
2023/07/06 09:32:20;;;;;;;15.73;7.45;;;;;;;20.57;75.88;101702.06;5042578;28;20481;-77
2023/07/06 09:34:50;;;;;;;12.80;6.63;;;;;;;20.31;75.43;101698.00;5041076;28;20140;-77
2023/07/06 09:37:17;;;;;;;14.52;6.47;;;;;;;20.17;77.21;101695.81;5041813;28;20039;-77
2023/07/06 09:39:57;;;;;;;12.15;6.45;;;;;;;20.46;77.20;101708.31;5040987;28;20368;-77
2023/07/06 09:42:24;;;;;;;10.02;5.45;;;;;;;20.69;75.00;101699.28;5041954;28;20033;-76
2023/07/06 09:44:50;;;;;;;12.10;6.20;;;;;;;20.69;73.64;101707.41;5040118;28;20172;-77
2023/07/06 09:47:16;;;;;;;12.25;6.65;;;;;;;20.67;73.54;101704.13;5024650;28;20056;-76
2023/07/06 09:49:56;;;;;;;8.43;5.65;;;;;;;20.78;74.22;101699.72;5041305;28;20062;-76
2023/07/06 09:52:22;;;;;;;11.05;5.32;;;;;;;20.83;75.46;101693.53;5038956;28;20028;-76
2023/07/06 09:55:11;;;;;;;14.10;6.65;;;;;;;20.87;74.85;101709.09;5038269;28;20048;-76
2023/07/06 09:57:40;;;;;;;11.23;4.82;;;;;;;20.48;72.63;101706.16;5021482;28;20025;-76
2023/07/06 10:00:15;;;;;;;9.63;5.55;;;;;;;20.42;72.67;101692.78;5021463;28;20471;-76
2023/07/06 10:02:53;;;;;;;15.85;5.70;;;;;;;20.64;73.06;101685.63;5035651;28;20060;-76
2023/07/06 10:05:37;;;;;;;7.68;4.57;;;;;;;20.78;72.75;101700.53;5042847;28;20079;-76
2023/07/06 10:08:11;;;;;;;11.65;4.90;;;;;;;20.89;70.91;101703.44;5037190;28;20480;-76
2023/07/06 10:11:05;;;;;;;12.07;4.97;;;;;;;21.08;70.13;101709.44;5040973;28;20049;-76
2023/07/06 10:14:23;;;;;;;11.90;5.57;;;;;;;21.21;71.98;101700.97;5040677;28;20020;-76
2023/07/06 10:17:01;;;;;;;9.07;4.22;;;;;;;21.32;69.94;101694.63;5034725;28;20037;-76
2023/07/06 10:19:54;;;;;;;14.10;5.30;;;;;;;21.51;71.38;101684.38;5042630;28;20631;-76
2023/07/06 10:22:33;;;;;;;8.80;4.53;;;;;;;21.69;72.15;101688.66;5038409;28;20032;-76
2023/07/06 10:25:01;;;;;;;5.53;3.75;;;;;;;21.68;69.38;101687.03;5042034;28;20040;-76
2023/07/06 10:27:33;;;;;;;11.50;4.30;;;;;;;21.59;70.16;101683.13;5024050;28;20083;-76
2023/07/06 10:30:05;;;;;;;8.38;4.15;;;;;;;21.42;69.40;101688.56;5041559;28;20467;-76
2023/07/06 10:32:39;;;;;;;13.82;4.53;;;;;;;21.09;66.42;101681.22;5035930;28;20041;-76
2023/07/06 10:35:10;;;;;;;10.35;4.07;;;;;;;21.35;67.44;101688.72;5038526;28;20026;-76
2023/07/06 10:37:38;;;;;;;15.50;4.15;;;;;;;21.50;69.63;101676.47;5019351;28;20091;-76
2023/07/06 10:40:28;;;;;;;7.50;3.05;;;;;;;21.67;68.91;101675.38;5040105;28;20032;-76
2023/07/06 10:43:12;;;;;;;5.60;3.92;;;;;;;21.64;66.97;101681.31;5042512;28;20540;-77
2023/07/06 10:45:45;;;;;;;6.90;3.17;;;;;;;21.66;66.69;101678.31;5020003;28;20033;-76
2023/07/06 10:48:31;;;;;;;8.25;4.03;;;;;;;21.62;65.12;101688.06;5036800;28;20409;-76
2023/07/06 10:51:06;;;;;;;7.70;3.10;;;;;;;21.51;66.34;101676.22;5044332;28;20470;-76
2023/07/06 10:53:37;;;;;;;10.60;2.85;;;;;;;21.69;64.84;101691.38;5045482;28;20036;-76
2023/07/06 10:56:02;;;;;;;6.70;2.85;;;;;;;21.64;64.19;101683.16;5041718;28;20059;-76
2023/07/06 10:58:29;;;;;;;4.33;2.60;;;;;;;21.58;62.40;101685.00;5022743;28;20488;-76
2023/07/06 11:00:57;;;;;;;7.80;2.75;;;;;;;21.48;64.28;101678.59;5043798;28;20277;-76
2023/07/06 11:03:31;;;;;;;6.97;2.97;;;;;;;21.74;64.62;101680.59;5040526;28;20488;-76
2023/07/06 11:06:06;;;;;;;9.10;2.75;;;;;;;21.97;59.44;101676.00;5039796;28;20029;-75
2023/07/06 11:09:07;;;;;;;4.40;2.00;;;;;;;22.12;61.58;101692.50;5042069;28;20052;-77
2023/07/06 11:11:38;;;;;;;6.28;2.50;;;;;;;21.72;59.21;101684.63;5045248;28;20029;-76
2023/07/06 11:14:38;;;;;;;5.43;2.45;;;;;;;21.93;61.94;101685.72;5042363;28;20025;-76
2023/07/06 11:17:16;;;;;;;6.22;2.88;;;;;;;22.11;60.04;101690.84;5045233;28;20048;-76
2023/07/06 11:20:01;;;;;;;10.10;2.55;;;;;;;22.30;61.21;101692.19;5022275;28;20026;-77
2023/07/06 11:22:28;;;;;;;7.82;2.80;;;;;;;22.50;59.24;101697.03;5043382;28;20044;-76
2023/07/06 11:25:03;;;;;;;5.13;2.28;;;;;;;22.54;58.18;101698.16;5042958;28;20485;-76